< < Back
Terminal Aerodrome Forecast


Current Version              Previous Versions:   1  2  3  4  5  6  7  8  9  

Terminal Aerodrome Forecast

893
FTUS42 KFFC 211700
TAFFTY
TAF
KFTY 211732Z 2118/2218 32006KT P6SM VCSH SCT045
     FM220200 00000KT P6SM SKC
     FM221600 31006KT P6SM SCT040=

Latest METAR

701
SAUS70 KWBC 220100 RRB
MTRFTY
METAR KFTY 220053Z 00000KT 10SM CLR 26/23 A3010 RMK AO2 SLP184
T02610228


USA.gov is the U.S. government's official web portal to all federal, state and local government web resources and services.